Time;durP1;ratioP1;P1;durP2;ratioP2;P2;SDS_P1;SDS_P2;PMS_P1;PMS_P2;Temp;Humidity;BMP_temperature;BMP_pressure;BME280_temperature;BME280_humidity;BME280_pressure;Samples;Min_cycle;Max_cycle;Signal;HPM_P1;HPM_P2
2023/01/29 00:01:43;;;;;;;3.93;2.83;;;-0.30;99.90;-0.90;101701.00;;;;4781508;29;123673;-69
2023/01/29 00:04:08;;;;;;;4.37;2.47;;;-0.40;99.90;-0.90;101708.00;;;;4775569;29;109965;-68
2023/01/29 00:06:34;;;;;;;6.10;2.63;;;-0.50;99.90;-1.00;101694.00;;;;4781739;29;93039;-68
2023/01/29 00:08:59;;;;;;;3.07;2.70;;;-0.60;99.90;-1.00;101692.00;;;;4782501;29;93839;-68
2023/01/29 00:11:25;;;;;;;5.30;3.13;;;-0.60;99.90;-1.10;101687.00;;;;4772723;29;122218;-68
2023/01/29 00:13:52;;;;;;;3.10;1.80;;;-0.70;99.90;-1.10;101687.00;;;;4780473;29;93085;-68
2023/01/29 00:16:18;;;;;;;2.93;2.50;;;-0.60;99.90;-1.20;101678.00;;;;4779216;29;99496;-68
2023/01/29 00:18:44;;;;;;;2.73;2.47;;;-0.70;99.90;-1.20;101688.00;;;;4779325;29;93396;-68
2023/01/29 00:21:12;;;;;;;3.83;2.73;;;-0.70;99.90;-1.30;101669.00;;;;4780124;29;122075;-68
2023/01/29 00:23:38;;;;;;;4.33;3.07;;;-0.80;99.90;-1.30;101672.00;;;;4781570;29;93835;-68
2023/01/29 00:26:05;;;;;;;4.83;3.20;;;-0.90;99.90;-1.40;101674.00;;;;4779835;29;93052;-68
2023/01/29 00:28:31;;;;;;;4.80;3.30;;;-0.90;99.90;-1.40;101666.00;;;;4778691;29;121737;-68
2023/01/29 00:30:57;;;;;;;3.73;2.43;;;-0.90;99.90;-1.50;101664.00;;;;4783285;29;99946;-68
2023/01/29 00:33:22;;;;;;;3.97;2.40;;;-1.10;99.90;-1.50;101657.00;;;;4779358;29;94360;-68
2023/01/29 00:35:48;;;;;;;4.50;2.83;;;-1.00;99.90;-1.60;101651.00;;;;4778825;29;108920;-68
2023/01/29 00:38:14;;;;;;;2.97;2.67;;;-1.10;99.90;-1.60;101663.00;;;;4777324;29;122688;-68
2023/01/29 00:46:10;;;;;;;2.97;2.50;;;-1.30;99.90;-1.80;101674.00;;;;4783119;29;92935;-68
2023/01/29 00:48:37;;;;;;;3.90;3.00;;;-1.30;99.90;-1.80;101674.00;;;;4780338;29;124233;-68
2023/01/29 00:51:02;;;;;;;3.10;2.40;;;-1.30;99.90;-1.90;101672.00;;;;4781644;29;122323;-68
2023/01/29 00:53:29;;;;;;;3.63;2.97;;;-1.40;99.90;-1.90;101674.00;;;;4781847;29;92860;-68
2023/01/29 00:55:55;;;;;;;3.20;2.40;;;-1.40;99.90;-2.00;101672.00;;;;4774939;29;102198;-68
2023/01/29 00:58:21;;;;;;;4.40;2.93;;;-1.50;99.90;-2.00;101676.00;;;;4779448;29;112978;-67
2023/01/29 01:00:48;;;;;;;5.93;2.77;;;-1.60;99.90;-2.10;101667.00;;;;4774384;29;93230;-67
2023/01/29 01:03:14;;;;;;;3.73;3.27;;;-1.60;99.90;-2.10;101672.00;;;;4778935;29;93637;-67
2023/01/29 01:05:41;;;;;;;3.83;3.07;;;-1.60;99.90;-2.10;101669.00;;;;4778934;29;109129;-67
2023/01/29 01:10:19;;;;;;;4.40;3.40;;;-1.70;99.90;-2.20;101665.00;;;;4773774;29;94530;-67
2023/01/29 01:11:14;;;;;;;6.50;3.03;;;-1.70;99.90;-2.30;101668.00;;;;4779052;29;93060;-67
2023/01/29 01:13:39;;;;;;;3.27;2.83;;;-1.70;99.90;-2.30;101656.00;;;;4779652;29;110482;-67
2023/01/29 01:16:11;;;;;;;3.33;2.80;;;-1.70;99.90;-2.30;101662.00;;;;4778746;29;108473;-66
2023/01/29 01:18:37;;;;;;;4.57;3.20;;;-1.80;99.90;-2.30;101648.00;;;;4780438;29;94014;-67
2023/01/29 01:21:03;;;;;;;4.53;2.97;;;-1.70;99.90;-2.40;101652.00;;;;4778628;29;114732;-66
2023/01/29 01:23:29;;;;;;;4.13;3.23;;;-1.90;99.90;-2.40;101642.00;;;;4778470;29;98275;-66
2023/01/29 01:25:55;;;;;;;5.67;3.20;;;-1.90;99.90;-2.40;101636.00;;;;4780112;29;93062;-66
2023/01/29 01:28:20;;;;;;;4.30;3.20;;;-2.00;99.90;-2.40;101632.00;;;;4776971;29;94346;-66
2023/01/29 01:30:46;;;;;;;5.67;2.97;;;-1.90;99.90;-2.40;101643.00;;;;4776499;29;123414;-66
2023/01/29 01:33:12;;;;;;;4.27;3.53;;;-2.00;99.90;-2.50;101642.00;;;;4779593;29;111157;-66
2023/01/29 01:35:39;;;;;;;3.20;2.70;;;-1.90;99.90;-2.50;101634.00;;;;4780415;29;108406;-66
2023/01/29 01:38:05;;;;;;;5.70;3.40;;;-2.10;99.90;-2.50;101649.00;;;;4778380;29;95080;-66
2023/01/29 01:40:31;;;;;;;3.33;1.90;;;-2.10;99.90;-2.50;101646.00;;;;4781214;29;108785;-67
2023/01/29 01:42:59;;;;;;;4.90;2.67;;;-2.10;99.90;-2.50;101645.00;;;;4779092;29;109767;-66
2023/01/29 01:45:34;;;;;;;3.63;2.30;;;-2.10;99.90;-2.60;101637.00;;;;4780316;29;94944;-66
2023/01/29 01:48:15;;;;;;;3.13;2.50;;;-2.00;99.90;-2.60;101630.00;;;;4777912;29;93130;-66
2023/01/29 01:50:50;;;;;;;3.20;2.27;;;-2.20;99.90;-2.60;101620.00;;;;4791047;29;93104;-67
2023/01/29 01:53:26;;;;;;;3.90;2.53;;;-2.30;99.90;-2.60;101619.00;;;;4778836;29;93042;-66
2023/01/29 01:55:57;;;;;;;3.60;2.60;;;-2.10;99.90;-2.60;101619.00;;;;4791466;29;99688;-65
2023/01/29 01:58:28;;;;;;;4.57;3.07;;;-2.20;99.90;-2.60;101625.00;;;;4772688;29;93871;-66
2023/01/29 02:00:54;;;;;;;2.70;2.50;;;-2.10;99.90;-2.60;101618.00;;;;4775868;29;114685;-65
2023/01/29 02:09:30;;;;;;;3.67;2.43;;;-2.20;99.90;-2.60;101621.00;;;;4780378;29;93387;-67
2023/01/29 02:11:56;;;;;;;2.73;2.30;;;-2.30;99.90;-2.60;101616.00;;;;4790299;29;92825;-66
2023/01/29 02:14:22;;;;;;;4.97;2.77;;;-2.20;99.90;-2.60;101613.00;;;;4775739;29;106155;-66
2023/01/29 02:16:47;;;;;;;3.03;2.07;;;-2.20;99.90;-2.70;101606.00;;;;4778054;29;92948;-67
2023/01/29 02:19:45;;;;;;;3.27;2.90;;;-2.20;99.90;-2.70;101617.00;;;;4763764;29;113096;-67
2023/01/29 02:22:28;;;;;;;3.47;2.63;;;-2.20;99.90;-2.70;101617.00;;;;4779709;29;92186;-66
2023/01/29 02:25:09;;;;;;;3.73;2.67;;;-1.60;99.90;-2.70;101623.00;;;;4788819;29;93174;-66
2023/01/29 02:28:20;;;;;;;5.17;2.70;;;-2.20;99.90;-2.70;101623.00;;;;4776958;29;92909;-66
2023/01/29 02:31:06;;;;;;;4.87;2.60;;;-2.20;99.90;-2.70;101605.00;;;;4794133;29;93849;-65
2023/01/29 02:33:58;;;;;;;4.60;2.37;;;-2.20;99.90;-2.70;101618.00;;;;4780549;29;94278;-65
2023/01/29 02:36:36;;;;;;;3.53;2.63;;;-2.10;99.90;-2.70;101607.00;;;;4778341;29;102750;-66
2023/01/29 02:39:17;;;;;;;4.13;2.50;;;-2.30;99.90;-2.80;101617.00;;;;4781741;29;92946;-65
2023/01/29 02:42:01;;;;;;;3.70;3.00;;;-2.30;99.90;-2.80;101632.00;;;;4785747;29;93067;-65
2023/01/29 02:44:38;;;;;;;5.27;3.30;;;-2.40;99.90;-2.80;101623.00;;;;4794617;29;109137;-64
2023/01/29 02:47:47;;;;;;;5.67;2.40;;;-2.30;99.90;-2.80;101627.00;;;;4782900;29;92886;-65
2023/01/29 02:50:36;;;;;;;3.27;2.63;;;-2.30;99.90;-2.80;101622.00;;;;4778861;29;92717;-66
2023/01/29 02:53:14;;;;;;;5.50;3.63;;;-2.10;99.90;-2.80;101629.00;;;;4781325;29;93613;-65
2023/01/29 02:56:14;;;;;;;5.43;3.17;;;-2.20;99.90;-2.80;101626.00;;;;4778645;29;92822;-64
2023/01/29 02:59:15;;;;;;;4.07;3.67;;;-2.20;99.90;-2.80;101612.00;;;;4778823;29;94045;-69
2023/01/29 03:01:52;;;;;;;5.70;3.57;;;-1.20;99.90;-2.80;101608.00;;;;4782295;29;95520;-66
2023/01/29 03:04:32;;;;;;;7.50;3.70;;;-2.30;99.90;-2.80;101604.00;;;;4782934;29;114451;-65
2023/01/29 03:07:09;;;;;;;6.50;4.23;;;-2.40;99.90;-2.80;101608.00;;;;4779336;29;112187;-65
2023/01/29 03:09:48;;;;;;;5.23;3.63;;;-2.40;99.90;-2.70;101609.00;;;;4797057;29;93284;-65
2023/01/29 03:12:32;;;;;;;5.00;4.23;;;-2.20;99.90;-2.70;101605.00;;;;4779367;29;101009;-66
2023/01/29 03:15:13;;;;;;;5.93;4.47;;;-2.30;99.90;-2.70;101617.00;;;;4794946;29;93152;-66
2023/01/29 03:17:53;;;;;;;7.00;4.40;;;-2.30;99.90;-2.70;101608.00;;;;4781372;29;94515;-65
2023/01/29 03:20:25;;;;;;;6.23;4.00;;;-2.30;99.90;-2.70;101607.00;;;;4779696;29;100681;-65
2023/01/29 03:23:00;;;;;;;5.57;4.27;;;-2.30;99.90;-2.70;101600.00;;;;4779473;29;93040;-66
2023/01/29 03:34:04;;;;;;;5.73;3.90;;;-2.30;99.90;-2.70;101592.00;;;;4780120;29;92905;-66
2023/01/29 03:36:44;;;;;;;6.50;4.17;;;-1.40;99.90;-2.70;101585.00;;;;4782436;29;109925;-65
2023/01/29 03:39:12;;;;;;;5.57;4.13;;;-2.30;99.90;-2.70;101586.00;;;;4781774;29;93607;-65
2023/01/29 03:41:53;;;;;;;6.60;5.20;;;-2.30;99.90;-2.70;101604.00;;;;4779746;29;103642;-65
2023/01/29 03:44:57;;;;;;;6.27;4.60;;;-2.30;99.90;-2.70;101598.00;;;;4793405;29;101078;-65
2023/01/29 03:47:43;;;;;;;6.47;4.90;;;-2.20;99.90;-2.70;101591.00;;;;4781967;29;93083;-64
2023/01/29 03:50:51;;;;;;;18.27;4.63;;;-2.20;99.90;-2.80;101594.00;;;;4780448;29;93245;-65
2023/01/29 03:53:39;;;;;;;7.67;4.97;;;-2.20;99.90;-2.70;101583.00;;;;4781671;29;95244;-66
2023/01/29 03:56:33;;;;;;;11.20;5.60;;;-2.30;99.90;-2.70;101579.00;;;;4779859;29;93459;-65
2023/01/29 03:59:31;;;;;;;7.33;4.40;;;-2.10;99.90;-2.70;101579.00;;;;4780623;29;93348;-66
2023/01/29 04:02:05;;;;;;;7.17;4.53;;;-2.30;99.90;-2.60;101575.00;;;;4779174;29;114325;-65
2023/01/29 04:04:35;;;;;;;5.93;4.70;;;-2.30;99.90;-2.60;101578.00;;;;4777258;29;103965;-66
2023/01/29 04:07:13;;;;;;;8.57;5.57;;;-2.20;99.90;-2.60;101576.00;;;;4782192;29;93236;-64
2023/01/29 04:09:49;;;;;;;6.87;5.10;;;-2.10;99.90;-2.50;101583.00;;;;4777394;29;93517;-66
2023/01/29 04:12:21;;;;;;;5.53;4.30;;;-2.00;99.90;-2.50;101576.00;;;;4780328;29;93875;-66
2023/01/29 04:14:50;;;;;;;6.93;5.17;;;-2.10;99.90;-2.50;101574.00;;;;4782175;29;92893;-65
2023/01/29 04:17:24;;;;;;;6.20;4.57;;;-2.20;99.90;-2.40;101560.00;;;;4792004;29;107738;-65
2023/01/29 04:19:50;;;;;;;9.73;4.73;;;-1.80;99.90;-2.30;101567.00;;;;4774190;29;118502;-65
2023/01/29 04:22:30;;;;;;;6.80;4.70;;;-1.80;99.90;-2.30;101564.00;;;;4775184;29;123459;-65
2023/01/29 04:25:01;;;;;;;9.50;5.13;;;-1.80;99.90;-2.20;101570.00;;;;4776707;29;93149;-65
2023/01/29 04:27:59;;;;;;;5.83;3.80;;;-1.80;99.90;-2.20;101568.00;;;;4781023;29;92995;-65
2023/01/29 04:30:49;;;;;;;7.67;4.37;;;-1.70;99.90;-2.10;101567.00;;;;4780254;29;105971;-64
2023/01/29 04:33:30;;;;;;;7.83;4.27;;;-1.70;99.90;-2.00;101549.00;;;;4792380;29;116501;-64
2023/01/29 04:36:38;;;;;;;8.73;4.97;;;-1.70;99.90;-2.00;101536.00;;;;4782688;29;93335;-66
2023/01/29 04:39:30;;;;;;;6.70;4.57;;;-1.50;99.90;-1.90;101543.00;;;;4757240;29;92258;-65
2023/01/29 04:42:26;;;;;;;7.13;4.33;;;-1.50;99.90;-1.90;101543.00;;;;4780521;29;108051;-66
2023/01/29 04:45:17;;;;;;;6.47;4.10;;;-1.40;99.90;-1.80;101544.00;;;;4793117;29;93038;-65
2023/01/29 04:48:19;;;;;;;7.67;4.97;;;-1.50;99.90;-1.80;101532.00;;;;4779521;29;103071;-65
2023/01/29 04:51:09;;;;;;;9.80;4.90;;;-1.40;99.90;-1.80;101536.00;;;;4793025;29;93953;-64
2023/01/29 04:53:47;;;;;;;6.53;3.93;;;-1.40;99.90;-1.70;101511.00;;;;4779827;29;93320;-65
2023/01/29 04:56:34;;;;;;;6.17;4.27;;;-1.30;99.90;-1.70;101514.00;;;;4779017;29;93197;-65
2023/01/29 04:59:10;;;;;;;6.43;3.97;;;-1.20;99.90;-1.70;101513.00;;;;4778832;29;101188;-65
2023/01/29 05:01:37;;;;;;;4.40;3.63;;;-1.30;99.90;-1.70;101510.00;;;;4783573;29;92948;-65
2023/01/29 05:04:10;;;;;;;7.37;4.53;;;-1.30;99.90;-1.70;101512.00;;;;4779993;29;122078;-65
2023/01/29 05:06:38;;;;;;;6.10;4.03;;;-1.30;99.90;-1.60;101502.00;;;;4776453;29;94093;-65
2023/01/29 05:09:04;;;;;;;5.07;3.57;;;-1.20;99.90;-1.60;101495.00;;;;4789411;29;96875;-65
2023/01/29 05:11:32;;;;;;;10.40;4.00;;;-1.20;99.90;-1.60;101508.00;;;;4776714;29;108525;-64
2023/01/29 05:14:01;;;;;;;6.20;4.63;;;-1.30;99.90;-1.60;101500.00;;;;4777145;29;95473;-65
2023/01/29 05:16:40;;;;;;;4.13;3.50;;;-1.30;99.90;-1.60;101496.00;;;;4788290;29;114115;-64
2023/01/29 05:19:08;;;;;;;6.77;4.27;;;-1.00;99.90;-1.60;101494.00;;;;4779872;29;93257;-64
2023/01/29 05:21:34;;;;;;;5.60;3.73;;;-1.20;99.90;-1.60;101494.00;;;;4778730;29;100790;-66
2023/01/29 05:24:13;;;;;;;6.10;4.43;;;-1.20;99.90;-1.60;101487.00;;;;4778767;29;121884;-64
2023/01/29 05:29:25;;;;;;;6.40;4.17;;;-1.10;99.90;-1.60;101488.00;;;;4780940;29;92890;-65
2023/01/29 05:31:51;;;;;;;7.40;4.23;;;-1.10;99.90;-1.60;101488.00;;;;4778237;29;109181;-64
2023/01/29 05:34:17;;;;;;;6.47;3.70;;;-1.10;99.90;-1.50;101473.00;;;;4776252;29;123066;-65
2023/01/29 05:36:42;;;;;;;6.17;4.67;;;-1.10;99.90;-1.50;101493.00;;;;4777418;29;121428;-63
2023/01/29 05:39:08;;;;;;;6.07;4.97;;;-1.20;99.90;-1.50;101479.00;;;;4774961;29;109317;-65
2023/01/29 05:41:34;;;;;;;5.73;4.53;;;-1.10;99.90;-1.50;101476.00;;;;4780155;29;108268;-64
2023/01/29 05:43:59;;;;;;;5.83;3.70;;;-1.10;99.90;-1.50;101479.00;;;;4779644;29;93160;-64
2023/01/29 05:46:25;;;;;;;5.43;4.27;;;-1.10;99.90;-1.50;101476.00;;;;4777486;29;122365;-65
2023/01/29 05:48:54;;;;;;;6.17;4.37;;;-1.10;99.90;-1.50;101475.00;;;;4777172;29;110333;-65
2023/01/29 05:51:19;;;;;;;5.63;4.00;;;-1.10;99.90;-1.40;101479.00;;;;4779520;29;92878;-64
2023/01/29 05:53:45;;;;;;;5.70;3.97;;;-1.10;99.90;-1.40;101483.00;;;;4776899;29;121948;-65
2023/01/29 05:56:11;;;;;;;10.47;4.77;;;-1.10;99.90;-1.40;101474.00;;;;4778120;29;122514;-63
2023/01/29 05:58:36;;;;;;;8.53;5.20;;;-1.10;99.90;-1.40;101477.00;;;;4781450;29;92936;-64
2023/01/29 06:01:19;;;;;;;8.53;5.33;;;-1.10;99.90;-1.40;101481.00;;;;4778796;29;108291;-64
2023/01/29 06:03:45;;;;;;;7.10;4.20;;;-1.00;99.90;-1.40;101484.00;;;;4777487;29;94286;-63
2023/01/29 06:06:11;;;;;;;8.07;3.83;;;-0.60;99.90;-1.40;101490.00;;;;4778949;29;94439;-63
2023/01/29 06:08:37;;;;;;;8.60;4.50;;;-1.00;99.90;-1.40;101500.00;;;;4775809;29;109713;-64
2023/01/29 06:11:07;;;;;;;6.13;4.00;;;-1.00;99.90;-1.40;101507.00;;;;4772957;29;109443;-64
2023/01/29 06:13:32;;;;;;;7.80;4.70;;;-1.00;99.90;-1.40;101510.00;;;;4776445;29;95873;-62
2023/01/29 06:15:58;;;;;;;7.47;4.90;;;-0.90;99.90;-1.30;101520.00;;;;4777636;29;123504;-64
2023/01/29 06:18:24;;;;;;;7.83;4.03;;;-0.90;99.90;-1.30;101523.00;;;;4779141;29;111313;-66
2023/01/29 06:20:49;;;;;;;5.83;4.80;;;0.30;99.90;-1.30;101533.00;;;;4779867;29;108705;-64
2023/01/29 06:23:15;;;;;;;7.03;4.60;;;-0.10;99.90;-1.30;101527.00;;;;4775165;29;122873;-65
2023/01/29 06:25:41;;;;;;;8.53;4.60;;;-0.90;99.90;-1.30;101537.00;;;;4778339;29;120711;-62
2023/01/29 06:28:06;;;;;;;8.33;4.80;;;-0.90;99.90;-1.30;101540.00;;;;4778432;29;110791;-64
2023/01/29 06:30:32;;;;;;;4.07;3.57;;;-0.90;99.90;-1.30;101526.00;;;;4778881;29;96447;-63
2023/01/29 06:33:00;;;;;;;6.90;4.67;;;-0.90;99.90;-1.30;101538.00;;;;4780279;29;122469;-65
2023/01/29 06:35:26;;;;;;;7.87;4.53;;;-0.90;99.90;-1.30;101537.00;;;;4776351;29;93729;-64
2023/01/29 06:37:52;;;;;;;5.83;3.90;;;-0.90;99.90;-1.20;101536.00;;;;4780108;29;93013;-63
2023/01/29 06:40:17;;;;;;;6.10;4.03;;;-0.90;99.90;-1.30;101534.00;;;;4779439;29;102117;-62
2023/01/29 06:42:43;;;;;;;8.07;5.13;;;-0.80;99.90;-1.20;101539.00;;;;4777075;29;123021;-63
2023/01/29 06:45:10;;;;;;;6.40;3.87;;;-0.90;99.90;-1.20;101547.00;;;;4778205;29;123511;-64
2023/01/29 06:47:35;;;;;;;9.30;4.33;;;-0.80;99.90;-1.20;101580.00;;;;4780979;29;92850;-63
2023/01/29 06:50:01;;;;;;;6.00;4.77;;;-0.90;99.90;-1.20;101588.00;;;;4781470;29;107201;-63
2023/01/29 06:52:27;;;;;;;5.07;3.77;;;-0.90;99.90;-1.20;101601.00;;;;4775511;29;122087;-63
2023/01/29 06:54:55;;;;;;;6.37;4.13;;;-0.80;99.90;-1.10;101592.00;;;;4781521;29;93896;-63
2023/01/29 06:57:20;;;;;;;5.27;4.27;;;-0.80;99.90;-1.10;101600.00;;;;4775065;29;92826;-62
2023/01/29 06:59:46;;;;;;;9.10;4.80;;;-0.70;99.90;-1.10;101592.00;;;;4777715;29;109010;-64
2023/01/29 07:02:12;;;;;;;11.63;5.53;;;-0.70;99.90;-1.00;101609.00;;;;4780150;29;123522;-63
2023/01/29 07:04:38;;;;;;;8.43;5.17;;;-0.60;99.90;-1.00;101607.00;;;;4773968;29;123474;-63
2023/01/29 07:07:04;;;;;;;7.93;4.33;;;-0.70;99.90;-1.00;101600.00;;;;4777878;29;92882;-63
2023/01/29 07:09:30;;;;;;;7.60;5.00;;;-0.70;99.90;-1.00;101593.00;;;;4778400;29;102165;-64
2023/01/29 07:11:55;;;;;;;7.97;4.87;;;-0.60;99.90;-1.00;101592.00;;;;4782514;29;108599;-64
2023/01/29 07:14:21;;;;;;;6.10;3.87;;;-0.60;99.90;-1.00;101588.00;;;;4776538;29;120553;-63
2023/01/29 07:16:47;;;;;;;7.17;4.67;;;-0.60;99.90;-1.00;101590.00;;;;4783040;29;101285;-64
2023/01/29 07:19:12;;;;;;;7.43;4.73;;;-0.60;99.90;-1.00;101574.00;;;;4783571;29;92819;-63
2023/01/29 07:21:38;;;;;;;8.20;5.17;;;-0.60;99.90;-1.00;101583.00;;;;4779406;29;93676;-64
2023/01/29 07:24:04;;;;;;;7.50;4.83;;;-0.50;99.90;-0.90;101590.00;;;;4777664;29;122441;-63
2023/01/29 07:26:30;;;;;;;6.10;4.27;;;-0.60;99.90;-0.90;101589.00;;;;4775457;29;100392;-64
2023/01/29 07:28:55;;;;;;;7.87;5.33;;;-0.50;99.90;-0.90;101585.00;;;;4777152;29;107038;-63
2023/01/29 07:31:21;;;;;;;8.53;5.00;;;-0.50;99.90;-0.90;101590.00;;;;4778340;29;118448;-64
2023/01/29 07:33:47;;;;;;;7.17;4.53;;;-0.40;99.90;-0.90;101598.00;;;;4778084;29;93621;-64
2023/01/29 07:36:14;;;;;;;9.57;5.53;;;-0.40;99.90;-0.90;101587.00;;;;4778453;29;93026;-64
2023/01/29 07:38:39;;;;;;;7.30;4.70;;;-0.50;99.90;-0.90;101599.00;;;;4778422;29;93965;-64
2023/01/29 07:41:05;;;;;;;5.27;4.47;;;-0.50;99.90;-0.80;101588.00;;;;4777048;29;110360;-64
2023/01/29 07:43:31;;;;;;;7.97;4.17;;;-0.50;99.90;-0.80;101584.00;;;;4790160;29;113294;-64
2023/01/29 07:46:02;;;;;;;4.30;3.70;;;-0.40;99.90;-0.80;101570.00;;;;4781376;29;93369;-64
2023/01/29 07:48:28;;;;;;;7.47;4.97;;;-0.50;99.90;-0.80;101572.00;;;;4779095;29;93017;-63
2023/01/29 07:50:55;;;;;;;5.93;3.87;;;-0.40;99.90;-0.80;101565.00;;;;4779741;29;120568;-62
2023/01/29 07:53:21;;;;;;;8.77;4.93;;;-0.40;99.90;-0.80;101562.00;;;;4778396;29;93015;-63
2023/01/29 07:55:46;;;;;;;5.90;4.50;;;-0.50;99.90;-0.80;101551.00;;;;4776911;29;94627;-66
2023/01/29 07:58:12;;;;;;;6.63;4.47;;;-0.40;99.90;-0.70;101549.00;;;;4777752;29;108821;-64
2023/01/29 08:00:38;;;;;;;4.97;3.67;;;-0.40;99.90;-0.70;101544.00;;;;4774994;29;123684;-65
2023/01/29 08:03:11;;;;;;;8.73;4.40;;;-0.50;99.90;-0.70;101520.00;;;;4774360;29;93710;-64
2023/01/29 08:05:37;;;;;;;12.37;5.47;;;-0.30;99.90;-0.70;101505.00;;;;4776543;29;93999;-64
2023/01/29 08:08:03;;;;;;;7.37;5.30;;;-0.30;99.90;-0.70;101517.00;;;;4778065;29;107128;-64
2023/01/29 08:10:29;;;;;;;7.37;4.83;;;-0.30;99.90;-0.70;101526.00;;;;4778850;29;99510;-63
2023/01/29 08:12:59;;;;;;;8.40;4.97;;;-0.40;99.90;-0.70;101520.00;;;;4775969;29;93986;-63
2023/01/29 08:15:26;;;;;;;15.17;5.83;;;-0.30;99.90;-0.70;101523.00;;;;4777499;29;106588;-64
2023/01/29 08:17:53;;;;;;;7.13;5.27;;;-0.50;99.90;-0.60;101528.00;;;;4779775;29;108437;-63
2023/01/29 08:20:19;;;;;;;6.13;4.83;;;-0.30;99.90;-0.60;101519.00;;;;4778603;29;113836;-63
2023/01/29 08:22:45;;;;;;;7.13;5.17;;;-0.30;99.90;-0.60;101524.00;;;;4777722;29;93562;-64
2023/01/29 08:25:12;;;;;;;6.17;5.10;;;-0.30;99.90;-0.60;101544.00;;;;4779561;29;92814;-64
2023/01/29 08:27:38;;;;;;;10.47;5.40;;;-0.30;99.90;-0.60;101531.00;;;;4778756;29;92904;-64
2023/01/29 08:30:05;;;;;;;5.83;5.13;;;-0.30;99.90;-0.60;101527.00;;;;4777540;29;122885;-64
2023/01/29 08:32:31;;;;;;;9.93;5.23;;;-0.20;99.90;-0.60;101537.00;;;;4779579;29;94170;-65
2023/01/29 08:34:56;;;;;;;7.17;4.77;;;-0.20;99.90;-0.60;101528.00;;;;4778112;29;110502;-65
2023/01/29 08:37:22;;;;;;;6.80;5.10;;;-0.30;99.90;-0.60;101532.00;;;;4777332;29;110616;-65
2023/01/29 08:39:47;;;;;;;9.30;5.53;;;-0.20;99.90;-0.60;101527.00;;;;4775732;29;121598;-65
2023/01/29 08:42:13;;;;;;;11.83;5.87;;;-0.20;99.90;-0.60;101537.00;;;;4778441;29;115897;-64
2023/01/29 08:44:39;;;;;;;9.27;5.17;;;-0.40;99.90;-0.60;101521.00;;;;4774213;29;112056;-65
2023/01/29 08:47:04;;;;;;;11.10;5.87;;;-0.20;99.90;-0.60;101517.00;;;;4778087;29;107896;-64
2023/01/29 08:49:30;;;;;;;9.63;5.80;;;-0.30;99.90;-0.60;101506.00;;;;4775796;29;124156;-65
2023/01/29 08:51:56;;;;;;;9.63;6.50;;;-0.30;99.90;-0.60;101506.00;;;;4777272;29;118258;-65
2023/01/29 08:54:22;;;;;;;8.40;6.13;;;-0.20;99.90;-0.60;101507.00;;;;4774896;29;93939;-65
2023/01/29 08:56:49;;;;;;;7.23;5.70;;;-0.30;99.90;-0.60;101511.00;;;;4778594;29;100351;-65
2023/01/29 08:59:14;;;;;;;8.63;6.07;;;-0.20;99.90;-0.60;101523.00;;;;4773590;29;110512;-64
2023/01/29 09:01:40;;;;;;;9.43;5.83;;;-0.10;99.90;-0.60;101531.00;;;;4776657;29;93659;-66
2023/01/29 09:04:06;;;;;;;8.37;6.00;;;-0.20;99.90;-0.50;101522.00;;;;4778321;29;93107;-64
2023/01/29 09:06:32;;;;;;;10.23;6.67;;;-0.10;99.90;-0.50;101507.00;;;;4777463;29;109958;-65
2023/01/29 09:08:57;;;;;;;9.13;5.80;;;-0.10;99.90;-0.50;101495.00;;;;4779340;29;104720;-64
2023/01/29 09:11:23;;;;;;;8.13;5.30;;;-0.20;99.90;-0.50;101504.00;;;;4778529;29;122953;-65
2023/01/29 09:13:49;;;;;;;5.77;4.83;;;-0.10;99.90;-0.40;101509.00;;;;4777088;29;109822;-66
2023/01/29 09:16:14;;;;;;;8.87;4.50;;;-0.10;99.90;-0.40;101508.00;;;;4776827;29;108124;-65
2023/01/29 09:18:40;;;;;;;10.63;5.87;;;-0.10;99.90;-0.40;101514.00;;;;4775367;29;123834;-66
2023/01/29 09:21:06;;;;;;;7.90;4.40;;;0.10;99.90;-0.40;101507.00;;;;4775015;29;123107;-66
2023/01/29 09:23:31;;;;;;;6.87;5.10;;;-0.10;99.90;-0.40;101507.00;;;;4776368;29;111639;-66
2023/01/29 09:25:57;;;;;;;5.23;3.80;;;0.00;99.90;-0.40;101498.00;;;;4779745;29;92664;-65
2023/01/29 09:28:23;;;;;;;7.20;4.83;;;0.00;99.90;-0.30;101512.00;;;;4775712;29;102162;-65
2023/01/29 09:30:49;;;;;;;7.77;4.57;;;0.00;99.90;-0.30;101500.00;;;;4775163;29;122816;-66
2023/01/29 09:33:14;;;;;;;10.27;4.73;;;0.00;99.90;-0.30;101498.00;;;;4778533;29;92902;-66
2023/01/29 09:35:44;;;;;;;8.97;5.70;;;0.00;99.90;-0.40;101485.00;;;;4779058;29;92148;-66
2023/01/29 09:38:10;;;;;;;10.23;5.20;;;0.00;99.90;-0.40;101489.00;;;;4775629;29;94086;-66
2023/01/29 09:41:39;;;;;;;6.17;4.10;;;0.00;99.90;-0.40;101480.00;;;;4776537;29;93463;-66
2023/01/29 09:44:35;;;;;;;7.13;5.20;;;0.00;99.90;-0.40;101477.00;;;;4771468;29;95345;-66
2023/01/29 09:47:04;;;;;;;6.03;4.73;;;0.00;99.90;-0.30;101484.00;;;;4766991;29;93057;-67
2023/01/29 09:49:36;;;;;;;9.83;4.57;;;0.00;99.90;-0.30;101481.00;;;;4789588;29;94236;-66
2023/01/29 09:52:13;;;;;;;7.30;5.27;;;0.00;99.90;-0.30;101487.00;;;;4778033;29;96096;-67
2023/01/29 09:55:06;;;;;;;10.13;5.73;;;0.00;99.90;-0.30;101494.00;;;;4783635;29;102275;-67
2023/01/29 09:57:53;;;;;;;6.90;4.27;;;0.10;99.90;-0.30;101494.00;;;;4775767;29;94116;-66
2023/01/29 10:00:37;;;;;;;7.30;5.53;;;0.10;99.90;-0.30;101494.00;;;;4759440;29;118714;-67
2023/01/29 10:03:43;;;;;;;11.93;5.00;;;0.10;99.90;-0.30;101486.00;;;;4787376;29;92313;-65
2023/01/29 10:06:48;;;;;;;7.53;4.77;;;0.10;99.90;-0.30;101495.00;;;;4778460;29;93069;-68
2023/01/29 10:09:48;;;;;;;6.93;5.00;;;0.10;99.90;-0.30;101491.00;;;;4776786;29;93254;-67
2023/01/29 10:13:03;;;;;;;9.83;6.17;;;0.00;99.90;-0.30;101494.00;;;;4774064;29;93984;-66
2023/01/29 10:15:58;;;;;;;8.43;5.70;;;0.10;99.90;-0.40;101483.00;;;;4776573;29;93084;-66
2023/01/29 10:19:12;;;;;;;6.53;4.80;;;0.00;99.90;-0.40;101494.00;;;;4773618;29;92800;-67
2023/01/29 10:22:11;;;;;;;8.77;5.17;;;0.00;99.90;-0.40;101480.00;;;;4776996;29;93076;-66
2023/01/29 10:24:58;;;;;;;7.13;5.03;;;0.00;99.90;-0.40;101490.00;;;;4790031;29;94659;-66
2023/01/29 10:27:31;;;;;;;7.80;5.67;;;0.00;99.90;-0.40;101483.00;;;;4774837;29;93016;-66
2023/01/29 10:29:58;;;;;;;7.40;5.30;;;-0.10;99.90;-0.40;101482.00;;;;4775367;29;106204;-68
2023/01/29 10:32:37;;;;;;;9.27;6.50;;;0.00;99.90;-0.40;101471.00;;;;4772713;29;109410;-66
2023/01/29 10:35:16;;;;;;;7.90;4.83;;;0.00;99.90;-0.40;101473.00;;;;4777622;29;93088;-67
2023/01/29 10:37:42;;;;;;;7.40;4.97;;;0.10;99.90;-0.40;101450.00;;;;4774015;29;113316;-67
2023/01/29 10:40:35;;;;;;;10.20;7.03;;;0.00;99.90;-0.30;101446.00;;;;4776736;29;108325;-69
2023/01/29 10:44:03;;;;;;;9.93;6.60;;;0.00;99.90;-0.40;101435.00;;;;4788045;29;93247;-66
2023/01/29 10:47:15;;;;;;;7.67;6.10;;;0.00;99.90;-0.40;101426.00;;;;4772860;29;93184;-67
2023/01/29 10:50:05;;;;;;;9.07;5.53;;;0.10;99.90;-0.40;101436.00;;;;4785130;29;110874;-66
2023/01/29 10:52:48;;;;;;;9.97;6.23;;;0.00;99.90;-0.40;101436.00;;;;4779027;29;93156;-66
2023/01/29 10:55:36;;;;;;;6.57;5.87;;;0.00;99.90;-0.50;101432.00;;;;4790790;29;93658;-67
2023/01/29 10:58:14;;;;;;;9.17;5.87;;;-0.20;99.90;-0.50;101411.00;;;;4780143;29;106631;-67
2023/01/29 11:00:41;;;;;;;9.00;5.37;;;-0.20;99.90;-0.50;101408.00;;;;4775882;29;94383;-66
2023/01/29 11:03:28;;;;;;;11.00;6.10;;;-0.10;99.90;-0.40;101405.00;;;;4778318;29;92795;-67
2023/01/29 11:06:22;;;;;;;9.63;7.07;;;-0.10;99.90;-0.40;101407.00;;;;4779856;29;93071;-67
2023/01/29 11:09:01;;;;;;;8.37;6.93;;;-0.10;99.90;-0.40;101400.00;;;;4778204;29;94290;-67
2023/01/29 11:11:40;;;;;;;8.67;6.77;;;-0.10;99.90;-0.40;101393.00;;;;4777701;29;93793;-69
2023/01/29 11:14:15;;;;;;;8.90;5.63;;;-0.10;99.90;-0.40;101385.00;;;;4788977;29;92999;-68
2023/01/29 11:16:45;;;;;;;5.73;5.23;;;0.00;99.90;-0.40;101383.00;;;;4791146;29;94461;-68
2023/01/29 11:19:12;;;;;;;10.00;6.43;;;-0.10;99.90;-0.30;101388.00;;;;4779358;29;115364;-68
2023/01/29 11:21:59;;;;;;;9.50;6.33;;;0.10;99.90;-0.40;101381.00;;;;4778410;29;93173;-66
2023/01/29 11:24:26;;;;;;;8.90;6.67;;;0.00;99.90;-0.40;101373.00;;;;4778932;29;92822;-66
2023/01/29 11:26:56;;;;;;;10.57;6.40;;;0.00;99.90;-0.40;101392.00;;;;4779838;29;92457;-68
2023/01/29 11:29:38;;;;;;;9.47;5.77;;;-0.10;99.90;-0.50;101386.00;;;;4778820;29;93349;-67
2023/01/29 11:32:24;;;;;;;10.63;6.77;;;-0.10;99.90;-0.50;101394.00;;;;4788935;29;93434;-67
2023/01/29 11:35:11;;;;;;;11.47;7.07;;;-0.10;99.90;-0.40;101401.00;;;;4776914;29;94044;-66
2023/01/29 11:37:42;;;;;;;9.67;5.80;;;0.00;99.90;-0.40;101389.00;;;;4778137;29;93323;-67